Time;durP1;ratioP1;P1;durP2;ratioP2;P2;SDS_P1;SDS_P2;PMS_P1;PMS_P2;Temp;Humidity;BMP_temperature;BMP_pressure;BME280_temperature;BME280_humidity;BME280_pressure;Samples;Min_cycle;Max_cycle;Signal;HPM_P1;HPM_P2
2023/09/09 00:25:44;;;;;;;22.27;17.52;;;;;;;18.31;100.00;101430.38;5017865;28;20088;-96
2023/09/09 01:22:53;;;;;;;33.30;26.90;;;;;;;17.75;100.00;101423.81;5867387;23;20058;-96
2023/09/09 01:25:18;;;;;;;34.65;27.02;;;;;;;17.82;100.00;101443.25;4997638;28;20031;-96
2023/09/09 01:27:44;;;;;;;35.07;26.50;;;;;;;17.70;100.00;101424.72;4999350;28;20030;-96
2023/09/09 01:30:11;;;;;;;46.25;31.27;;;;;;;17.65;100.00;101425.59;4999663;28;20058;-96
2023/09/09 01:32:36;;;;;;;37.83;27.05;;;;;;;17.61;100.00;101427.25;4999238;28;20023;-95
2023/09/09 01:35:54;;;;;;;36.93;29.27;;;;;;;17.93;100.00;101460.97;4999555;28;20049;-95
2023/09/09 01:38:19;;;;;;;37.95;29.52;;;;;;;17.62;100.00;101420.75;4982530;28;20045;-96
2023/09/09 01:40:46;;;;;;;40.73;30.50;;;;;;;17.63;100.00;101419.66;4999004;28;20030;-96
2023/09/09 01:43:12;;;;;;;42.58;31.88;;;;;;;17.73;100.00;101436.84;4999526;28;20023;-96
2023/09/09 01:45:37;;;;;;;45.75;34.20;;;;;;;17.61;100.00;101427.25;4999498;28;20057;-96
2023/09/09 01:48:04;;;;;;;46.40;35.80;;;;;;;17.53;100.00;101423.28;4999081;28;20038;-96
2023/09/09 01:58:15;;;;;;;47.95;36.42;;;;;;;17.46;100.00;101422.03;5215847;23;20048;-96
2023/09/09 02:00:41;;;;;;;49.97;37.17;;;;;;;17.71;100.00;101465.06;4999161;28;20038;-96
2023/09/09 02:03:09;;;;;;;48.40;36.60;;;;;;;17.69;100.00;101464.56;4998790;28;20086;-95
2023/09/09 02:13:20;;;;;;;47.83;35.23;;;;;;;17.39;100.00;101419.69;5033716;28;20050;-96
2023/09/09 02:15:46;;;;;;;46.30;35.37;;;;;;;17.30;100.00;101403.28;5024545;28;20300;-96
2023/09/09 02:18:11;;;;;;;44.83;34.33;;;;;;;17.59;100.00;101453.84;5015325;28;20025;-95
2023/09/09 02:20:37;;;;;;;49.50;38.05;;;;;;;17.26;100.00;101402.22;5014597;28;20037;-96
2023/09/09 02:23:02;;;;;;;53.30;38.33;;;;;;;17.45;100.00;101436.69;5015215;28;20019;-96
2023/09/09 02:25:28;;;;;;;50.15;38.13;;;;;;;17.50;100.00;101459.09;5015512;28;20027;-96
2023/09/09 02:27:55;;;;;;;50.10;36.77;;;;;;;17.25;100.00;101422.28;5015997;28;20077;-96
2023/09/09 02:30:24;;;;;;;47.08;36.95;;;;;;;17.26;100.00;101434.72;5015226;28;20030;-96
2023/09/09 02:32:49;;;;;;;53.08;38.15;;;;;;;17.10;100.00;101412.41;5015395;28;20026;-95
2023/09/09 02:35:15;;;;;;;51.40;38.67;;;;;;;17.06;100.00;101417.59;5015152;28;20045;-96
2023/09/09 02:37:40;;;;;;;55.00;38.08;;;;;;;17.01;100.00;101420.38;5015773;28;20026;-96
2023/09/09 02:40:07;;;;;;;51.10;37.87;;;;;;;17.03;100.00;101426.31;5015452;28;20018;-96
2023/09/09 02:42:32;;;;;;;53.17;39.17;;;;;;;17.26;100.00;101459.09;5014544;28;20041;-96
2023/09/09 02:44:58;;;;;;;47.03;35.47;;;;;;;17.07;100.00;101431.97;5014358;28;20086;-96
2023/09/09 02:57:39;;;;;;;50.47;35.57;;;;;;;17.12;100.00;101458.97;5029978;28;20332;-95
2023/09/09 03:00:07;;;;;;;49.17;35.55;;;;;;;16.85;100.00;101416.16;5032489;28;20529;-95
2023/09/09 03:02:33;;;;;;;45.00;33.40;;;;;;;16.81;100.00;101414.03;5032380;28;20040;-96
2023/09/09 03:04:58;;;;;;;49.00;34.13;;;;;;;16.81;100.00;101419.44;5023589;28;20030;-96
2023/09/09 03:07:24;;;;;;;45.50;35.00;;;;;;;16.74;100.00;101416.28;5013862;28;20003;-95
2023/09/09 03:09:50;;;;;;;46.53;33.43;;;;;;;16.94;100.00;101442.34;5014227;28;20038;-95
2023/09/09 03:12:20;;;;;;;48.00;34.85;;;;;;;16.69;100.00;101412.81;5014627;28;20045;-96
2023/09/09 03:14:47;;;;;;;47.72;35.83;;;;;;;16.90;100.00;101448.59;4997038;28;20022;-96
2023/09/09 03:17:14;;;;;;;50.50;36.42;;;;;;;16.69;100.00;101413.63;5015347;28;20030;-96
2023/09/09 03:19:39;;;;;;;55.95;39.33;;;;;;;16.60;100.00;101410.72;5014019;28;20113;-96
2023/09/09 03:22:05;;;;;;;50.93;37.77;;;;;;;16.60;100.00;101412.63;5012242;28;20022;-95
2023/09/09 03:24:30;;;;;;;57.10;40.17;;;;;;;16.64;100.00;101417.19;5013552;28;20030;-95
2023/09/09 03:26:56;;;;;;;57.83;41.50;;;;;;;16.62;100.00;101424.78;5014503;28;20054;-96
2023/09/09 03:29:22;;;;;;;56.83;41.65;;;;;;;16.59;100.00;101422.63;5014073;28;20248;-96
2023/09/09 03:31:47;;;;;;;55.73;40.57;;;;;;;16.73;100.00;101440.91;5014520;28;20038;-96
2023/09/09 03:34:13;;;;;;;55.63;39.35;;;;;;;16.83;100.00;101458.94;5013377;28;20026;-96
2023/09/09 03:36:38;;;;;;;55.50;40.87;;;;;;;16.55;100.00;101432.41;5013522;28;20048;-96
2023/09/09 03:39:04;;;;;;;60.70;43.07;;;;;;;16.69;100.00;101450.72;5014217;28;20023;-96
2023/09/09 03:41:30;;;;;;;57.07;41.77;;;;;;;16.54;100.00;101430.00;4998334;28;20341;-96
2023/09/09 03:43:56;;;;;;;59.35;41.75;;;;;;;16.42;100.00;101412.25;5017218;28;20030;-95
2023/09/09 03:46:22;;;;;;;61.35;43.58;;;;;;;16.64;100.00;101449.66;5016869;28;20040;-96
2023/09/09 03:48:47;;;;;;;55.77;41.30;;;;;;;16.43;100.00;101421.16;5017067;28;20022;-96
2023/09/09 03:51:14;;;;;;;61.25;43.33;;;;;;;16.56;100.00;101452.16;5016584;28;20018;-95
2023/09/09 03:53:41;;;;;;;56.70;40.73;;;;;;;16.40;100.00;101441.47;5300629;23;20041;-96
2023/09/09 03:56:07;;;;;;;60.73;42.80;;;;;;;16.32;100.00;101425.81;4977963;29;20299;-96
2023/09/09 03:58:32;;;;;;;58.97;41.92;;;;;;;16.54;100.00;101471.34;4974223;28;20092;-96
2023/09/09 04:01:09;;;;;;;60.20;42.73;;;;;;;16.24;100.00;101419.13;4971120;29;20066;-95
2023/09/09 04:03:36;;;;;;;59.50;42.30;;;;;;;16.19;100.00;101417.28;4974119;29;20134;-95
2023/09/09 04:06:06;;;;;;;64.95;44.40;;;;;;;16.18;100.00;101414.84;4977411;28;20023;-96
2023/09/09 04:08:33;;;;;;;59.88;41.72;;;;;;;16.22;100.00;101439.44;4975077;29;20011;-96
2023/09/09 04:10:59;;;;;;;63.20;42.58;;;;;;;16.26;100.00;101443.16;4976766;29;20018;-95
2023/09/09 04:13:26;;;;;;;62.78;42.03;;;;;;;16.28;100.00;101452.63;4974540;28;20059;-96
2023/09/09 04:15:59;;;;;;;61.78;42.88;;;;;;;16.04;100.00;101420.09;4970019;28;20027;-96
2023/09/09 04:18:25;;;;;;;60.85;43.75;;;;;;;16.34;100.00;101466.91;4970648;29;20081;-96
2023/09/09 04:20:51;;;;;;;61.83;44.28;;;;;;;16.01;100.00;101421.44;4971278;29;20050;-95
2023/09/09 04:23:17;;;;;;;61.33;42.87;;;;;;;16.17;100.00;101451.88;4970321;29;20023;-96
2023/09/09 04:25:46;;;;;;;64.88;43.60;;;;;;;15.95;100.00;101419.88;4966666;28;20056;-96
2023/09/09 04:28:13;;;;;;;61.20;42.92;;;;;;;16.07;100.00;101441.13;4977151;28;20019;-94
2023/09/09 04:30:39;;;;;;;65.45;44.20;;;;;;;15.94;100.00;101433.66;4972439;28;20103;-96
2023/09/09 04:33:06;;;;;;;66.32;44.55;;;;;;;15.96;100.00;101445.81;4980444;29;20007;-96
2023/09/09 04:35:32;;;;;;;62.30;44.15;;;;;;;15.83;100.00;101424.75;4980099;28;20079;-96
2023/09/09 04:37:57;;;;;;;65.03;46.30;;;;;;;15.78;100.00;101427.50;4999634;28;20030;-95
2023/09/09 04:40:23;;;;;;;69.45;47.58;;;;;;;15.88;100.00;101446.38;4999677;28;20011;-95
2023/09/09 04:42:49;;;;;;;74.20;50.13;;;;;;;15.80;100.00;101441.50;5000038;28;20018;-95
2023/09/09 04:45:15;;;;;;;73.10;49.60;;;;;;;15.74;100.00;101433.47;4993100;28;20514;-95
2023/09/09 04:47:40;;;;;;;72.50;49.45;;;;;;;15.92;100.00;101469.06;4987123;28;20058;-95
2023/09/09 04:50:06;;;;;;;72.43;47.90;;;;;;;15.86;100.00;101453.97;4985039;28;20026;-96
2023/09/09 04:52:32;;;;;;;69.78;46.88;;;;;;;15.75;100.00;101453.16;4978684;28;20037;-96
2023/09/09 04:54:57;;;;;;;68.03;44.83;;;;;;;15.74;100.00;101456.94;4978748;28;20409;-96
2023/09/09 04:57:23;;;;;;;67.97;45.13;;;;;;;15.55;100.00;101427.84;4980675;28;20438;-96
2023/09/09 04:59:48;;;;;;;67.97;45.50;;;;;;;15.68;100.00;101460.78;4980120;28;20493;-96
2023/09/09 05:02:14;;;;;;;62.03;43.10;;;;;;;15.72;100.00;101484.25;4981060;28;20019;-96
2023/09/09 05:04:41;;;;;;;72.43;45.07;;;;;;;15.42;100.00;101433.84;4980891;28;20120;-96
2023/09/09 05:07:09;;;;;;;65.90;43.77;;;;;;;15.57;100.00;101458.09;4961638;28;20810;-96
2023/09/09 05:09:35;;;;;;;69.95;47.42;;;;;;;15.65;100.00;101466.72;4978388;28;20034;-96
2023/09/09 05:12:00;;;;;;;71.70;48.88;;;;;;;15.47;100.00;101438.44;4977182;28;20022;-95
2023/09/09 05:14:26;;;;;;;72.07;48.53;;;;;;;15.67;100.00;101469.97;4958844;28;20486;-95
2023/09/09 05:16:52;;;;;;;66.67;46.43;;;;;;;15.71;100.00;101479.09;4987097;28;20033;-94
2023/09/09 05:19:17;;;;;;;71.45;47.20;;;;;;;15.70;100.00;101485.63;4976387;28;20043;-96
2023/09/09 05:21:43;;;;;;;71.63;46.40;;;;;;;15.40;100.00;101436.03;4988391;28;20019;-95
2023/09/09 05:24:08;;;;;;;76.55;49.78;;;;;;;15.63;100.00;101479.69;4980276;28;20119;-95
2023/09/09 05:26:34;;;;;;;74.03;50.60;;;;;;;15.64;100.00;101484.81;4966709;28;20537;-95
2023/09/09 05:29:01;;;;;;;77.97;50.10;;;;;;;15.45;100.00;101457.63;4944963;28;20055;-95
2023/09/09 05:31:26;;;;;;;83.32;52.75;;;;;;;15.65;100.00;101493.75;4995201;28;20023;-95
2023/09/09 05:33:52;;;;;;;80.83;51.87;;;;;;;15.56;100.00;101480.78;4980826;28;20077;-95
2023/09/09 05:36:17;;;;;;;80.88;52.40;;;;;;;15.65;100.00;101493.75;4959730;28;20426;-95
2023/09/09 05:38:42;;;;;;;80.03;52.57;;;;;;;15.41;100.00;101457.38;4960126;28;20111;-95
2023/09/09 05:41:08;;;;;;;78.47;51.33;;;;;;;15.68;100.00;101495.91;4977471;28;20027;-95
2023/09/09 05:43:33;;;;;;;79.63;51.83;;;;;;;15.67;100.00;101496.97;4977620;28;20037;-95
2023/09/09 05:45:59;;;;;;;79.50;52.75;;;;;;;15.74;100.00;101495.59;4977019;28;20027;-95
2023/09/09 05:48:25;;;;;;;76.30;50.40;;;;;;;15.76;100.00;101495.31;4978340;28;20035;-96
2023/09/09 05:50:51;;;;;;;78.22;51.90;;;;;;;15.87;100.00;101493.41;4980282;28;20366;-95
2023/09/09 05:53:25;;;;;;;77.63;50.30;;;;;;;15.92;100.00;101498.78;4978840;28;20027;-94
2023/09/09 05:55:51;;;;;;;77.67;51.27;;;;;;;15.97;100.00;101501.47;4972217;28;20060;-96
2023/09/09 05:58:17;;;;;;;79.03;51.35;;;;;;;15.98;100.00;101508.47;4966004;28;20037;-96
2023/09/09 06:00:46;;;;;;;72.38;49.38;;;;;;;16.04;100.00;101512.78;4990136;28;20059;-96
2023/09/09 06:03:11;;;;;;;72.32;49.13;;;;;;;16.06;100.00;101507.13;4996678;28;20030;-96
2023/09/09 06:05:37;;;;;;;73.57;49.80;;;;;;;16.09;100.00;101503.03;4993474;28;20027;-95
2023/09/09 06:08:03;;;;;;;74.57;49.43;;;;;;;16.20;100.00;101510.00;4994971;28;20090;-95
2023/09/09 06:10:29;;;;;;;74.25;51.33;;;;;;;16.35;100.00;101518.00;4996933;28;20031;-95
2023/09/09 06:12:55;;;;;;;72.38;50.10;;;;;;;16.37;100.00;101517.75;4963331;28;20025;-96
2023/09/09 06:15:21;;;;;;;78.83;52.17;;;;;;;16.35;100.00;101501.00;4998257;28;20027;-96
2023/09/09 06:17:49;;;;;;;86.63;56.97;;;;;;;16.42;100.00;101509.59;4981349;28;20026;-95
2023/09/09 06:20:14;;;;;;;75.27;50.37;;;;;;;16.52;100.00;101508.72;4965564;28;20014;-96
2023/09/09 06:22:40;;;;;;;74.57;48.97;;;;;;;16.58;100.00;101504.88;4980612;28;20369;-96
2023/09/09 06:25:06;;;;;;;72.57;49.37;;;;;;;16.70;100.00;101512.63;4997984;28;20034;-94
2023/09/09 06:27:31;;;;;;;86.78;58.13;;;;;;;16.78;100.00;101520.16;4980879;28;20043;-95
2023/09/09 06:29:57;;;;;;;86.23;57.07;;;;;;;16.81;100.00;101514.16;4980929;28;20078;-96
2023/09/09 06:32:22;;;;;;;93.23;57.97;;;;;;;16.92;100.00;101522.22;4980330;28;20046;-94
2023/09/09 06:34:47;;;;;;;103.17;64.10;;;;;;;17.03;100.00;101531.88;4997812;28;20023;-95
2023/09/09 06:37:13;;;;;;;100.05;63.28;;;;;;;17.08;100.00;101537.25;4997326;28;20269;-96
2023/09/09 06:39:38;;;;;;;112.60;70.90;;;;;;;17.20;100.00;101538.78;4997016;28;20011;-96
2023/09/09 06:42:05;;;;;;;105.90;68.65;;;;;;;17.20;100.00;101530.66;4997282;28;20068;-94
2023/09/09 06:44:30;;;;;;;113.33;71.97;;;;;;;17.31;100.00;101526.75;4997416;28;20036;-94
2023/09/09 06:46:56;;;;;;;122.70;75.63;;;;;;;17.43;100.00;101539.09;4997116;28;20026;-96
2023/09/09 06:49:21;;;;;;;111.30;71.23;;;;;;;17.51;100.00;101546.59;4997047;28;20038;-96
2023/09/09 06:51:46;;;;;;;117.50;75.57;;;;;;;17.50;100.00;101539.56;4986703;28;20066;-95
2023/09/09 06:54:12;;;;;;;108.83;73.40;;;;;;;17.60;100.00;101544.06;4978726;28;20022;-95
2023/09/09 06:56:37;;;;;;;107.70;75.87;;;;;;;17.68;100.00;101563.22;4977933;28;20029;-96
2023/09/09 06:59:03;;;;;;;116.13;76.97;;;;;;;17.75;100.00;101559.34;4978094;28;20451;-95
2023/09/09 07:01:29;;;;;;;114.88;80.60;;;;;;;17.71;100.00;101549.06;4977803;28;20034;-95
2023/09/09 07:03:54;;;;;;;115.40;81.78;;;;;;;17.80;100.00;101548.44;4976937;28;20058;-95
2023/09/09 07:06:20;;;;;;;124.20;84.50;;;;;;;17.90;100.00;101553.72;4976921;28;20457;-95
2023/09/09 07:08:47;;;;;;;130.20;85.40;;;;;;;18.09;100.00;101561.13;4975580;28;20555;-94
2023/09/09 07:11:12;;;;;;;125.90;85.55;;;;;;;18.27;100.00;101571.19;4974625;28;20031;-94
2023/09/09 07:13:38;;;;;;;132.10;86.60;;;;;;;18.46;100.00;101570.38;4975848;28;20737;-95
2023/09/09 07:16:03;;;;;;;121.72;82.05;;;;;;;18.65;100.00;101569.56;4976950;28;20109;-94
2023/09/09 07:18:28;;;;;;;128.47;86.73;;;;;;;18.70;100.00;101569.50;4978128;28;20019;-96
2023/09/09 07:20:56;;;;;;;116.83;81.73;;;;;;;18.77;100.00;101575.38;4977096;28;20046;-94
2023/09/09 07:23:21;;;;;;;114.72;82.57;;;;;;;18.86;100.00;101580.94;4978030;28;20486;-95
2023/09/09 07:25:47;;;;;;;125.00;81.57;;;;;;;18.83;100.00;101585.03;4977615;28;20082;-94
2023/09/09 07:28:12;;;;;;;112.80;81.38;;;;;;;18.89;100.00;101578.44;4976074;28;20114;-94
2023/09/09 07:30:38;;;;;;;110.77;77.53;;;;;;;18.90;100.00;101579.22;4977784;28;20173;-94
2023/09/09 07:33:03;;;;;;;96.27;70.70;;;;;;;19.12;100.00;101586.78;4978781;28;20453;-95
2023/09/09 07:35:29;;;;;;;102.43;73.85;;;;;;;19.15;100.00;101586.22;4975445;28;20026;-95
2023/09/09 07:37:55;;;;;;;104.37;75.00;;;;;;;19.16;100.00;101593.25;4976095;28;20031;-95
2023/09/09 07:40:20;;;;;;;111.10;80.30;;;;;;;19.18;100.00;101590.22;4977878;28;20058;-94
2023/09/09 07:42:45;;;;;;;111.37;79.67;;;;;;;19.11;100.00;101587.06;4979018;28;20023;-95
2023/09/09 07:45:11;;;;;;;107.97;79.43;;;;;;;19.07;100.00;101592.31;4996919;28;20179;-95
2023/09/09 07:47:36;;;;;;;112.83;85.57;;;;;;;19.10;100.00;101599.88;4996662;28;20026;-95
2023/09/09 07:50:02;;;;;;;107.83;83.83;;;;;;;19.12;100.00;101608.53;4997667;28;20019;-95
2023/09/09 07:52:28;;;;;;;111.20;81.93;;;;;;;19.08;100.00;101595.84;5001211;28;20099;-95
2023/09/09 07:54:53;;;;;;;123.65;90.80;;;;;;;19.03;100.00;101594.00;4984480;28;20086;-94
2023/09/09 07:57:18;;;;;;;114.00;87.80;;;;;;;19.12;100.00;101608.53;5001001;28;20026;-96
2023/09/09 07:59:44;;;;;;;112.17;85.47;;;;;;;19.10;100.00;101602.59;5000190;28;20026;-95
2023/09/09 08:02:12;;;;;;;125.03;91.23;;;;;;;19.18;100.00;101596.44;4999808;28;20027;-95
2023/09/09 08:04:37;;;;;;;135.07;98.05;;;;;;;19.23;100.00;101611.88;5000308;28;20015;-95
2023/09/09 08:07:02;;;;;;;125.63;93.53;;;;;;;19.27;100.00;101595.78;5000378;28;20038;-96
2023/09/09 08:09:28;;;;;;;125.00;91.63;;;;;;;19.32;100.00;101591.06;4999780;28;20019;-95
2023/09/09 08:11:54;;;;;;;126.87;94.23;;;;;;;19.44;100.00;101597.94;4999973;28;20282;-96
2023/09/09 08:14:19;;;;;;;126.60;95.65;;;;;;;19.48;100.00;101599.75;4991903;28;20042;-95
2023/09/09 08:16:44;;;;;;;132.70;98.00;;;;;;;19.60;100.00;101603.88;4978683;28;20033;-96
2023/09/09 08:19:10;;;;;;;126.60;95.37;;;;;;;19.65;100.00;101609.25;4978399;28;20654;-95
2023/09/09 08:21:37;;;;;;;122.53;92.80;;;;;;;19.71;100.00;101602.59;4978490;28;20018;-96
2023/09/09 08:24:03;;;;;;;125.90;95.35;;;;;;;19.72;100.00;101604.19;4977404;28;20034;-95
2023/09/09 08:26:28;;;;;;;124.50;92.80;;;;;;;19.86;100.00;101606.91;4978147;28;20093;-95
2023/09/09 08:28:54;;;;;;;120.43;90.80;;;;;;;19.87;100.00;101605.84;4977971;28;20317;-95
2023/09/09 08:31:20;;;;;;;119.45;92.60;;;;;;;20.03;100.00;101605.53;4977476;28;20109;-95
2023/09/09 08:33:46;;;;;;;125.53;94.60;;;;;;;20.07;100.00;101607.38;4977209;28;20058;-95
2023/09/09 08:36:11;;;;;;;110.73;86.70;;;;;;;20.13;100.00;101603.41;4977795;28;20077;-95
2023/09/09 08:38:37;;;;;;;111.70;84.00;;;;;;;20.25;100.00;101623.88;4977468;28;20037;-94
2023/09/09 08:41:11;;;;;;;108.32;81.03;;;;;;;20.35;100.00;101620.91;4976730;28;20038;-95
2023/09/09 08:43:36;;;;;;;101.65;74.75;;;;;;;20.42;100.00;101626.78;4976497;28;20077;-95
2023/09/09 08:46:13;;;;;;;89.90;66.33;;;;;;;20.46;100.00;101621.50;4976645;28;20415;-95
2023/09/09 08:48:42;;;;;;;85.88;64.90;;;;;;;20.49;100.00;101628.25;4977531;28;20046;-95
2023/09/09 08:51:14;;;;;;;70.05;51.80;;;;;;;20.60;100.00;101626.94;4977884;28;20031;-94
2023/09/09 08:53:41;;;;;;;72.93;54.33;;;;;;;20.75;100.00;101633.91;4978550;28;20133;-95
2023/09/09 08:56:07;;;;;;;77.47;57.80;;;;;;;20.84;100.00;101625.84;4977708;28;20106;-95
2023/09/09 08:58:33;;;;;;;68.37;51.90;;;;;;;20.93;100.00;101624.00;4979234;28;20434;-93
2023/09/09 09:00:59;;;;;;;61.92;46.55;;;;;;;21.06;100.00;101629.69;4977555;28;20023;-95
2023/09/09 09:03:25;;;;;;;63.00;48.60;;;;;;;21.12;100.00;101626.53;4975556;28;20058;-96
2023/09/09 09:05:53;;;;;;;62.37;47.17;;;;;;;21.23;100.00;101635.25;4976772;28;20022;-95
2023/09/09 09:08:19;;;;;;;51.15;39.00;;;;;;;21.30;100.00;101627.47;4975448;28;20479;-96
2023/09/09 09:10:47;;;;;;;54.92;41.25;;;;;;;21.41;100.00;101632.66;4975979;28;20061;-95
2023/09/09 09:13:13;;;;;;;57.03;41.33;;;;;;;21.55;100.00;101625.16;4977411;28;20038;-95
2023/09/09 09:15:39;;;;;;;53.85;42.50;;;;;;;21.63;100.00;101638.09;4978093;28;20478;-94
2023/09/09 09:18:04;;;;;;;48.50;36.92;;;;;;;21.68;100.00;101637.13;4976180;28;20034;-95
2023/09/09 09:20:31;;;;;;;28.50;21.57;;;;;;;21.73;100.00;101644.38;4988054;28;20058;-95
2023/09/09 09:23:02;;;;;;;43.40;33.73;;;;;;;21.84;100.00;101639.44;4988019;28;20646;-93
2023/09/09 09:25:34;;;;;;;43.58;34.22;;;;;;;21.94;100.00;101639.97;4979647;28;20082;-95
2023/09/09 09:28:02;;;;;;;39.50;31.08;;;;;;;22.01;100.00;101642.22;4996642;28;20038;-94
2023/09/09 09:30:29;;;;;;;41.33;31.55;;;;;;;22.14;100.00;101647.91;4983061;28;20101;-95
2023/09/09 09:32:55;;;;;;;42.65;33.22;;;;;;;22.24;100.00;101640.22;4978042;28;20027;-95
2023/09/09 09:35:24;;;;;;;37.15;29.65;;;;;;;22.31;100.00;101636.22;4982362;28;20053;-95
2023/09/09 09:38:05;;;;;;;43.25;32.35;;;;;;;22.47;100.00;101636.59;4982857;28;20362;-96
2023/09/09 09:40:31;;;;;;;35.50;28.30;;;;;;;22.54;100.00;101635.00;4980709;28;20030;-96
2023/09/09 09:42:56;;;;;;;28.27;21.93;;;;;;;22.58;100.00;101639.81;4980017;28;20341;-96
2023/09/09 09:45:24;;;;;;;27.27;21.17;;;;;;;22.63;100.00;101635.00;4983927;28;20042;-96
2023/09/09 09:47:50;;;;;;;27.17;20.13;;;;;;;22.75;100.00;101634.34;4970103;28;20023;-96
2023/09/09 09:50:22;;;;;;;31.45;24.95;;;;;;;22.91;100.00;101639.34;4987734;28;20074;-96
2023/09/09 09:53:08;;;;;;;31.27;24.90;;;;;;;22.94;100.00;101625.81;4973413;28;20055;-96
2023/09/09 09:55:36;;;;;;;26.93;21.13;;;;;;;23.09;100.00;101643.66;4996640;28;20297;-96
2023/09/09 09:58:02;;;;;;;24.40;17.50;;;;;;;23.11;100.00;101641.41;4990860;28;20037;-95
2023/09/09 10:00:28;;;;;;;15.63;12.02;;;;;;;23.20;100.00;101638.66;4991213;28;20031;-95
2023/09/09 10:02:55;;;;;;;27.00;22.30;;;;;;;23.24;100.00;101641.56;4987454;28;20417;-95
2023/09/09 10:05:22;;;;;;;32.17;26.85;;;;;;;23.30;100.00;101637.53;4986204;28;20041;-96
2023/09/09 10:07:53;;;;;;;31.80;25.23;;;;;;;23.40;100.00;101639.13;4987407;28;20532;-96
2023/09/09 10:13:14;;;;;;;33.58;26.00;;;;;;;23.51;100.00;101615.75;5026441;23;20057;-96
2023/09/09 10:15:43;;;;;;;29.70;24.95;;;;;;;23.67;100.00;101617.94;5011173;23;20094;-96
2023/09/09 10:18:17;;;;;;;21.27;16.63;;;;;;;23.65;100.00;101599.13;5050585;23;20045;-96
2023/09/09 10:20:43;;;;;;;17.17;13.93;;;;;;;23.72;99.63;101593.97;4995665;28;20119;-96
2023/09/09 10:23:11;;;;;;;14.67;11.23;;;;;;;23.91;99.16;101600.94;4996461;28;20047;-96
2023/09/09 10:25:38;;;;;;;22.33;15.98;;;;;;;23.92;98.43;101594.31;4997111;28;20023;-96
2023/09/09 10:28:07;;;;;;;20.13;17.95;;;;;;;24.12;99.56;101611.13;4997999;28;20023;-96
2023/09/09 10:30:34;;;;;;;21.75;17.85;;;;;;;24.15;99.97;101603.06;4996421;28;20027;-96
2023/09/09 10:33:04;;;;;;;20.95;16.52;;;;;;;24.28;98.92;101603.97;4997957;28;20035;-96
2023/09/09 10:35:30;;;;;;;18.55;14.82;;;;;;;24.41;96.33;101593.84;4997919;28;20023;-96
2023/09/09 10:45:46;;;;;;;15.23;13.57;;;;;;;24.92;89.94;101595.72;4996963;23;20037;-92
2023/09/09 10:48:13;;;;;;;18.30;13.33;;;;;;;24.98;87.61;101590.81;4996780;28;20314;-96
2023/09/09 11:05:12;;;;;;;14.60;10.43;;;;;;;25.93;80.55;101596.31;5659589;23;20054;-96
2023/09/09 11:07:40;;;;;;;14.32;12.35;;;;;;;26.03;78.59;101586.78;5016204;28;20022;-96
2023/09/09 11:10:06;;;;;;;11.75;10.23;;;;;;;26.09;77.20;101592.84;5015614;28;20034;-96
2023/09/09 11:12:32;;;;;;;13.35;9.80;;;;;;;26.30;74.97;101599.00;5015321;28;20049;-96
2023/09/09 11:15:52;;;;;;;9.73;8.80;;;;;;;26.50;72.09;101617.59;5016629;28;20045;-96
2023/09/09 11:18:18;;;;;;;9.20;6.88;;;;;;;26.36;67.82;101583.09;5016618;28;20022;-95
2023/09/09 11:20:45;;;;;;;9.73;8.73;;;;;;;26.44;66.97;101576.66;5017035;28;20019;-96
2023/09/09 11:38:42;;;;;;;6.20;5.70;;;;;;;27.40;56.35;101620.06;4978299;28;20074;-96
2023/09/09 11:44:08;;;;;;;8.47;7.30;;;;;;;27.35;60.46;101570.78;5041331;23;20050;-96
2023/09/09 11:46:47;;;;;;;7.95;7.03;;;;;;;27.76;59.57;101618.19;4984566;28;20046;-96
2023/09/09 11:49:13;;;;;;;11.30;8.02;;;;;;;27.62;56.76;101588.38;5000364;28;20059;-96
2023/09/09 11:56:49;;;;;;;7.82;7.10;;;;;;;28.07;54.86;101615.75;5377108;23;20042;-96
2023/09/09 12:07:00;;;;;;;6.90;6.30;;;;;;;28.47;54.61;101597.31;5013778;23;20394;-94
2023/09/09 12:09:25;;;;;;;6.20;5.60;;;;;;;28.70;51.27;101616.66;4993979;28;20338;-95
2023/09/09 12:11:52;;;;;;;9.37;5.93;;;;;;;28.54;53.22;101587.22;4994772;28;20023;-96
2023/09/09 12:14:18;;;;;;;5.82;5.32;;;;;;;28.83;50.45;101609.88;4995104;28;20050;-95
2023/09/09 12:16:46;;;;;;;6.75;6.13;;;;;;;28.66;49.95;101585.50;4977115;28;20019;-96
2023/09/09 12:19:15;;;;;;;12.40;6.30;;;;;;;28.67;51.59;101576.84;4993267;28;20038;-96
2023/09/09 12:21:45;;;;;;;8.85;7.82;;;;;;;28.75;53.04;101572.28;4979961;28;20023;-96
2023/09/09 12:24:11;;;;;;;9.57;8.60;;;;;;;28.82;51.28;101575.19;4999081;28;20079;-96
2023/09/09 12:26:37;;;;;;;9.90;6.43;;;;;;;28.98;51.49;101579.78;4997389;28;20027;-96
2023/09/09 12:29:10;;;;;;;7.13;5.13;;;;;;;29.13;53.13;101578.88;4996916;28;20023;-96
2023/09/09 12:34:16;;;;;;;7.00;5.95;;;;;;;29.19;53.11;101586.84;5421811;23;20043;-96
2023/09/09 12:39:27;;;;;;;9.27;7.47;;;;;;;29.38;53.24;101588.75;5800442;23;20821;-96
2023/09/09 12:42:05;;;;;;;8.45;7.05;;;;;;;29.21;53.35;101565.22;5000061;28;20038;-96
2023/09/09 12:44:48;;;;;;;6.82;5.57;;;;;;;29.40;48.48;101587.22;4998710;28;20398;-96
2023/09/09 12:47:22;;;;;;;6.38;4.53;;;;;;;29.78;50.05;101595.69;4981809;28;20035;-96
2023/09/09 12:49:48;;;;;;;8.43;4.97;;;;;;;29.64;47.45;101581.69;4998554;28;20075;-96
2023/09/09 12:52:13;;;;;;;9.33;5.20;;;;;;;29.58;46.66;101567.41;4996556;28;20027;-96
2023/09/09 12:54:39;;;;;;;5.73;4.83;;;;;;;29.72;46.56;101578.66;4997015;28;20023;-96
2023/09/09 12:57:04;;;;;;;6.87;4.60;;;;;;;29.88;45.79;101577.69;4998290;28;20265;-96
2023/09/09 12:59:30;;;;;;;7.63;5.00;;;;;;;30.01;45.26;101590.13;4997668;28;20034;-96
2023/09/09 13:01:55;;;;;;;11.20;5.38;;;;;;;30.06;43.59;101602.81;4994184;28;20034;-96
2023/09/09 13:04:21;;;;;;;7.50;5.03;;;;;;;29.97;43.44;101569.16;4996830;28;20014;-96
2023/09/09 13:06:50;;;;;;;8.60;5.18;;;;;;;29.99;43.30;101573.13;4993767;28;20148;-95
2023/09/09 13:09:16;;;;;;;10.07;4.97;;;;;;;30.22;44.72;101591.56;4991598;28;20022;-96
2023/09/09 13:11:44;;;;;;;8.43;5.07;;;;;;;30.09;44.38;101559.84;4992944;28;20047;-96
2023/09/09 13:14:13;;;;;;;5.05;4.55;;;;;;;30.30;45.10;101593.25;4993635;28;20031;-96
2023/09/09 13:16:40;;;;;;;10.70;4.60;;;;;;;30.24;45.02;101567.13;4999533;28;20019;-96
2023/09/09 13:19:06;;;;;;;6.63;4.57;;;;;;;30.53;45.07;101584.03;4999759;28;20042;-96
2023/09/09 13:21:31;;;;;;;6.37;4.53;;;;;;;30.71;46.37;101594.50;4999103;28;20035;-95
2023/09/09 13:23:58;;;;;;;8.17;5.30;;;;;;;30.55;44.82;101572.59;4999568;28;20018;-96
2023/09/09 13:26:24;;;;;;;16.63;6.33;;;;;;;30.65;46.01;101563.66;4999964;28;20262;-96
2023/09/09 13:31:24;;;;;;;7.50;5.35;;;;;;;30.70;43.48;101566.09;5091619;23;20077;-96
2023/09/09 13:33:54;;;;;;;11.00;5.10;;;;;;;30.55;43.82;101554.06;4997027;28;20054;-96
2023/09/09 13:36:20;;;;;;;6.85;5.22;;;;;;;30.71;42.84;101575.16;4991701;28;20393;-95
2023/09/09 13:38:46;;;;;;;9.37;5.30;;;;;;;30.67;44.34;101553.00;4989797;28;20038;-95
2023/09/09 13:41:11;;;;;;;15.73;5.07;;;;;;;30.79;42.37;101541.66;4981291;28;20042;-96
2023/09/09 13:43:37;;;;;;;9.80;5.43;;;;;;;31.16;41.69;101559.41;4981551;28;20516;-95
2023/09/09 13:46:05;;;;;;;11.17;5.37;;;;;;;31.03;42.33;101550.56;4989372;28;20051;-96
2023/09/09 13:48:32;;;;;;;11.95;5.57;;;;;;;31.12;44.21;101558.56;4994281;28;20007;-96
2023/09/09 13:50:58;;;;;;;9.57;4.82;;;;;;;31.00;44.39;101545.03;4993020;28;20031;-96
2023/09/09 13:53:23;;;;;;;8.40;5.83;;;;;;;31.34;43.58;101570.59;4992272;28;20062;-96